Time;durP1;ratioP1;P1;durP2;ratioP2;P2;SDS_P1;SDS_P2;PMS_P1;PMS_P2;Temp;Humidity;BMP_temperature;BMP_pressure;BME280_temperature;BME280_humidity;BME280_pressure;Samples;Min_cycle;Max_cycle;Signal;HPM_P1;HPM_P2
2024/02/16 00:01:52;;;;;;;4.80;2.85;;;;;;;;;;4924526;29;20028;-78
2024/02/16 00:04:37;;;;;;;5.07;2.72;;;;;;;;;;4905430;29;20127;-77
2024/02/16 00:07:22;;;;;;;9.38;3.40;;;;;;;;;;4903638;29;20087;-77
2024/02/16 00:10:14;;;;;;;4.25;2.38;;;;;;;;;;4918676;29;20034;-77
2024/02/16 00:13:00;;;;;;;8.43;3.20;;;;;;;;;;4895418;29;20044;-78
2024/02/16 00:15:45;;;;;;;6.63;2.63;;;;;;;;;;4908621;29;20034;-77
2024/02/16 00:18:31;;;;;;;8.82;3.28;;;;;;;;;;4900006;29;20034;-77
2024/02/16 00:21:16;;;;;;;5.28;2.90;;;;;;;;;;4900146;29;20031;-77
2024/02/16 00:24:02;;;;;;;7.85;3.50;;;;;;;;;;4911795;29;20054;-76
2024/02/16 00:26:48;;;;;;;6.22;2.95;;;;;;;;;;4912362;29;20035;-77
2024/02/16 00:29:34;;;;;;;7.28;3.08;;;;;;;;;;4902023;29;20028;-77
2024/02/16 00:32:20;;;;;;;10.95;3.83;;;;;;;;;;4913673;29;20088;-78
2024/02/16 00:35:05;;;;;;;4.80;2.80;;;;;;;;;;4911827;29;20094;-77
2024/02/16 00:37:51;;;;;;;10.25;2.88;;;;;;;;;;4911655;29;20365;-77
2024/02/16 00:40:43;;;;;;;6.18;2.75;;;;;;;;;;4887585;29;20039;-77
2024/02/16 00:43:28;;;;;;;6.00;2.97;;;;;;;;;;4925606;29;20032;-77
2024/02/16 00:46:14;;;;;;;8.32;4.07;;;;;;;;;;4912487;29;20036;-78
2024/02/16 00:48:59;;;;;;;4.38;2.53;;;;;;;;;;4909223;29;20043;-77
2024/02/16 00:51:44;;;;;;;6.47;2.72;;;;;;;;;;4912856;29;20110;-76
2024/02/16 00:54:30;;;;;;;5.53;2.67;;;;;;;;;;4913590;29;20091;-76
2024/02/16 00:57:16;;;;;;;5.45;2.75;;;;;;;;;;4910505;29;20016;-77
2024/02/16 01:00:03;;;;;;;5.55;2.35;;;;;;;;;;4911974;29;20032;-77
2024/02/16 01:02:48;;;;;;;4.68;2.70;;;;;;;;;;4912662;29;20036;-77
2024/02/16 01:05:33;;;;;;;4.50;2.75;;;;;;;;;;4910020;29;20035;-76
2024/02/16 01:08:19;;;;;;;5.10;2.95;;;;;;;;;;4907085;29;20150;-76
2024/02/16 01:11:04;;;;;;;7.93;2.95;;;;;;;;;;4898287;29;20039;-77
2024/02/16 01:13:49;;;;;;;9.13;3.67;;;;;;;;;;4899851;29;20055;-77
2024/02/16 01:16:35;;;;;;;5.05;2.65;;;;;;;;;;4907398;29;20044;-76
2024/02/16 01:19:20;;;;;;;5.05;3.00;;;;;;;;;;4898282;29;20032;-77
2024/02/16 01:22:06;;;;;;;8.88;2.75;;;;;;;;;;4898614;29;20032;-77
2024/02/16 01:24:51;;;;;;;5.95;2.78;;;;;;;;;;4900551;29;20030;-76
2024/02/16 01:27:36;;;;;;;5.70;3.40;;;;;;;;;;4901469;29;20032;-77
2024/02/16 01:30:22;;;;;;;5.47;2.85;;;;;;;;;;4898059;29;20059;-76
2024/02/16 01:33:07;;;;;;;5.40;2.55;;;;;;;;;;4898143;29;20039;-76
2024/02/16 01:35:52;;;;;;;8.40;3.15;;;;;;;;;;4900931;29;20028;-77
2024/02/16 01:38:38;;;;;;;4.63;2.35;;;;;;;;;;4910746;29;20027;-77
2024/02/16 01:41:23;;;;;;;6.32;2.75;;;;;;;;;;4898110;29;20032;-77
2024/02/16 01:44:09;;;;;;;3.83;2.33;;;;;;;;;;4889043;29;20383;-77
2024/02/16 01:46:54;;;;;;;6.38;3.03;;;;;;;;;;4901320;29;20028;-76
2024/02/16 01:49:39;;;;;;;6.93;3.13;;;;;;;;;;4885388;29;20032;-76
2024/02/16 01:52:24;;;;;;;6.68;3.10;;;;;;;;;;4899901;29;20031;-75
2024/02/16 01:55:11;;;;;;;11.38;2.67;;;;;;;;;;4909475;29;20031;-77
2024/02/16 01:57:57;;;;;;;6.18;3.13;;;;;;;;;;4900514;29;20115;-76
2024/02/16 02:00:43;;;;;;;6.28;2.63;;;;;;;;;;4896021;29;20118;-76
2024/02/16 02:03:28;;;;;;;6.43;2.58;;;;;;;;;;4897543;29;20447;-76
2024/02/16 02:06:14;;;;;;;7.57;3.30;;;;;;;;;;4905131;29;20032;-76
2024/02/16 02:08:59;;;;;;;6.25;3.03;;;;;;;;;;4907691;29;20046;-77
2024/02/16 02:11:45;;;;;;;5.18;2.50;;;;;;;;;;4895823;29;20427;-78
2024/02/16 02:14:30;;;;;;;7.70;3.17;;;;;;;;;;4900204;29;20035;-76
2024/02/16 02:17:16;;;;;;;6.60;2.92;;;;;;;;;;4904803;29;20024;-76
2024/02/16 02:20:03;;;;;;;8.32;2.80;;;;;;;;;;4897428;29;20032;-77
2024/02/16 02:22:49;;;;;;;5.78;2.70;;;;;;;;;;4897081;29;20023;-76
2024/02/16 02:25:34;;;;;;;5.35;2.83;;;;;;;;;;4913828;29;20040;-78
2024/02/16 02:28:23;;;;;;;7.25;2.80;;;;;;;;;;4887048;29;20023;-78
2024/02/16 02:31:10;;;;;;;5.30;2.45;;;;;;;;;;4896989;29;20419;-78
2024/02/16 02:33:55;;;;;;;5.50;2.90;;;;;;;;;;4884844;29;20032;-77
2024/02/16 02:36:41;;;;;;;5.13;2.78;;;;;;;;;;4899088;29;20111;-75
2024/02/16 02:39:26;;;;;;;6.53;2.53;;;;;;;;;;4887218;29;20083;-75
2024/02/16 02:42:11;;;;;;;4.75;2.67;;;;;;;;;;4896141;29;20036;-77
2024/02/16 02:44:57;;;;;;;5.55;3.30;;;;;;;;;;4900574;29;20030;-76
2024/02/16 02:47:43;;;;;;;6.85;2.22;;;;;;;;;;4890792;29;20036;-76
2024/02/16 02:50:30;;;;;;;8.48;2.75;;;;;;;;;;4895979;29;20023;-75
2024/02/16 02:53:18;;;;;;;4.28;2.65;;;;;;;;;;4894961;29;20032;-76
2024/02/16 02:56:03;;;;;;;6.07;2.65;;;;;;;;;;4895719;29;20032;-76
2024/02/16 02:58:49;;;;;;;6.07;2.85;;;;;;;;;;4895829;29;20043;-76
2024/02/16 03:01:35;;;;;;;6.38;2.42;;;;;;;;;;4898167;29;20040;-77
2024/02/16 03:04:20;;;;;;;4.65;2.38;;;;;;;;;;4903285;29;20043;-77
2024/02/16 03:07:06;;;;;;;8.20;3.50;;;;;;;;;;4918729;29;20078;-77
2024/02/16 03:09:51;;;;;;;5.07;2.70;;;;;;;;;;4889571;29;20040;-77
2024/02/16 03:12:36;;;;;;;3.97;2.47;;;;;;;;;;4899815;29;20051;-77
2024/02/16 03:15:21;;;;;;;4.60;2.65;;;;;;;;;;4906378;29;20032;-79
2024/02/16 03:18:08;;;;;;;5.97;2.80;;;;;;;;;;4900767;29;20146;-77
2024/02/16 03:20:53;;;;;;;5.85;2.80;;;;;;;;;;4899934;29;20036;-78
2024/02/16 03:23:39;;;;;;;3.92;2.47;;;;;;;;;;4901070;29;20036;-79
2024/02/16 03:26:25;;;;;;;5.63;3.00;;;;;;;;;;4909647;29;20024;-77
2024/02/16 03:29:10;;;;;;;5.80;2.95;;;;;;;;;;4899806;29;20114;-75
2024/02/16 03:31:56;;;;;;;5.28;2.90;;;;;;;;;;4899963;29;20023;-77
2024/02/16 03:34:41;;;;;;;5.88;2.40;;;;;;;;;;4894816;29;20035;-77
2024/02/16 03:37:26;;;;;;;5.20;2.65;;;;;;;;;;4908935;29;20039;-78
2024/02/16 03:40:12;;;;;;;4.05;2.30;;;;;;;;;;4913012;29;20059;-79
2024/02/16 03:42:58;;;;;;;5.63;2.67;;;;;;;;;;4899401;29;20032;-77
2024/02/16 03:45:43;;;;;;;4.07;2.40;;;;;;;;;;4900074;29;20039;-77
2024/02/16 03:48:28;;;;;;;5.28;2.33;;;;;;;;;;4913683;29;20043;-78
2024/02/16 03:51:13;;;;;;;5.55;2.72;;;;;;;;;;4898005;29;20047;-78
2024/02/16 03:53:59;;;;;;;6.65;3.38;;;;;;;;;;4898988;29;20016;-77
2024/02/16 03:56:45;;;;;;;5.82;2.45;;;;;;;;;;4905369;29;20364;-77
2024/02/16 03:59:30;;;;;;;4.80;2.15;;;;;;;;;;4899460;29;20043;-76
2024/02/16 04:02:25;;;;;;;4.32;2.42;;;;;;;;;;4898873;29;20023;-78
2024/02/16 04:05:11;;;;;;;4.25;2.47;;;;;;;;;;4906822;29;20036;-75
2024/02/16 04:08:01;;;;;;;6.85;2.45;;;;;;;;;;4891653;29;20550;-77
2024/02/16 04:10:46;;;;;;;7.28;2.75;;;;;;;;;;4897434;29;20478;-75
2024/02/16 04:13:32;;;;;;;6.10;2.38;;;;;;;;;;4913501;29;20055;-77
2024/02/16 04:16:17;;;;;;;4.38;2.30;;;;;;;;;;4901898;29;20028;-77
2024/02/16 04:19:03;;;;;;;7.25;2.88;;;;;;;;;;4901626;29;20031;-77
2024/02/16 04:21:48;;;;;;;4.55;2.17;;;;;;;;;;4902079;29;20032;-78
2024/02/16 04:24:33;;;;;;;7.07;2.47;;;;;;;;;;4908423;29;20036;-76
2024/02/16 04:27:18;;;;;;;6.10;2.60;;;;;;;;;;4910649;29;20027;-77
2024/02/16 04:30:04;;;;;;;4.43;2.13;;;;;;;;;;4895514;29;20036;-78
2024/02/16 04:32:50;;;;;;;4.18;2.10;;;;;;;;;;4905325;29;20047;-77
2024/02/16 04:35:35;;;;;;;4.10;2.45;;;;;;;;;;4907081;29;20028;-78
2024/02/16 04:38:20;;;;;;;6.60;2.90;;;;;;;;;;4895841;29;20020;-78
2024/02/16 04:41:06;;;;;;;4.85;2.38;;;;;;;;;;4893475;29;20036;-79
2024/02/16 04:43:53;;;;;;;5.15;2.63;;;;;;;;;;4906862;29;20101;-77
2024/02/16 04:46:38;;;;;;;7.78;3.95;;;;;;;;;;4897966;29;20428;-78
2024/02/16 04:49:23;;;;;;;6.20;3.25;;;;;;;;;;4896114;29;20063;-78
2024/02/16 04:52:08;;;;;;;4.75;2.55;;;;;;;;;;4912776;29;20148;-77
2024/02/16 04:54:54;;;;;;;7.15;2.30;;;;;;;;;;4910181;29;20027;-78
2024/02/16 04:57:40;;;;;;;7.47;2.55;;;;;;;;;;4893460;29;20043;-77
2024/02/16 05:00:26;;;;;;;7.32;2.45;;;;;;;;;;4911271;29;20023;-78
2024/02/16 05:03:11;;;;;;;4.50;2.20;;;;;;;;;;4908798;29;20142;-77
2024/02/16 05:05:59;;;;;;;6.25;2.47;;;;;;;;;;4909946;29;20031;-76
2024/02/16 05:08:44;;;;;;;4.20;2.47;;;;;;;;;;4906025;29;20070;-77
2024/02/16 05:11:31;;;;;;;4.43;2.28;;;;;;;;;;4903220;29;20040;-76
2024/02/16 05:14:19;;;;;;;3.88;2.55;;;;;;;;;;4916133;29;20044;-77
2024/02/16 05:17:07;;;;;;;5.65;2.42;;;;;;;;;;4915134;29;20028;-77
2024/02/16 05:19:53;;;;;;;6.60;2.53;;;;;;;;;;4910061;29;20028;-76
2024/02/16 05:22:39;;;;;;;5.45;2.38;;;;;;;;;;4899732;29;20039;-76
2024/02/16 05:25:24;;;;;;;4.43;2.42;;;;;;;;;;4910378;29;20056;-76
2024/02/16 05:28:09;;;;;;;4.35;2.40;;;;;;;;;;4908757;29;20055;-76
2024/02/16 05:30:55;;;;;;;5.38;2.67;;;;;;;;;;4911047;29;20036;-76
2024/02/16 05:33:41;;;;;;;4.85;2.38;;;;;;;;;;4912445;29;20035;-77
2024/02/16 05:36:30;;;;;;;4.70;2.92;;;;;;;;;;4915066;29;20499;-76
2024/02/16 05:39:26;;;;;;;6.23;2.87;;;;;;;;;;4909395;29;20035;-77
2024/02/16 05:42:11;;;;;;;6.25;3.17;;;;;;;;;;4888863;29;20028;-76
2024/02/16 05:44:58;;;;;;;6.05;2.70;;;;;;;;;;4913684;29;20063;-77
2024/02/16 05:47:45;;;;;;;5.50;2.47;;;;;;;;;;4914448;29;20094;-77
2024/02/16 05:50:30;;;;;;;5.10;2.25;;;;;;;;;;4909976;29;20032;-79
2024/02/16 05:53:15;;;;;;;6.03;2.58;;;;;;;;;;4906895;29;20111;-77
2024/02/16 05:56:01;;;;;;;8.15;3.47;;;;;;;;;;4898098;29;20023;-75
2024/02/16 05:58:50;;;;;;;4.55;2.83;;;;;;;;;;4899583;29;20024;-77
2024/02/16 06:01:36;;;;;;;7.25;3.25;;;;;;;;;;4890171;29;20095;-76
2024/02/16 06:04:22;;;;;;;9.43;3.28;;;;;;;;;;4899035;29;20978;-77
2024/02/16 06:07:08;;;;;;;8.70;3.22;;;;;;;;;;4920838;29;20075;-78
2024/02/16 06:09:54;;;;;;;5.85;3.28;;;;;;;;;;4907258;29;20040;-78
2024/02/16 06:12:39;;;;;;;5.05;2.83;;;;;;;;;;4907145;29;20071;-79
2024/02/16 06:15:25;;;;;;;6.97;3.05;;;;;;;;;;4908322;29;20035;-77
2024/02/16 06:18:10;;;;;;;6.72;3.10;;;;;;;;;;4910236;29;20024;-78
2024/02/16 06:20:55;;;;;;;7.93;3.10;;;;;;;;;;4915076;29;20074;-78
2024/02/16 06:23:41;;;;;;;7.40;3.30;;;;;;;;;;4896089;29;20028;-79
2024/02/16 06:26:26;;;;;;;6.15;3.22;;;;;;;;;;4901299;29;20123;-79
2024/02/16 06:29:14;;;;;;;8.10;3.05;;;;;;;;;;4908729;29;20114;-79
2024/02/16 06:31:59;;;;;;;11.30;4.22;;;;;;;;;;4897600;29;20020;-80
2024/02/16 06:34:48;;;;;;;6.68;3.20;;;;;;;;;;4897525;29;20484;-79
2024/02/16 06:37:33;;;;;;;5.07;2.90;;;;;;;;;;4908960;29;20044;-80
2024/02/16 06:40:18;;;;;;;7.57;3.38;;;;;;;;;;4896129;29;20514;-77
2024/02/16 06:43:05;;;;;;;9.27;3.00;;;;;;;;;;4914698;29;20394;-77
2024/02/16 06:45:50;;;;;;;10.27;3.28;;;;;;;;;;4883633;29;20027;-79
2024/02/16 06:48:35;;;;;;;9.55;4.13;;;;;;;;;;4896863;29;20039;-77
2024/02/16 06:51:21;;;;;;;8.38;3.38;;;;;;;;;;4890123;29;20111;-76
2024/02/16 06:54:07;;;;;;;7.78;3.22;;;;;;;;;;4896592;29;20020;-77
2024/02/16 06:56:53;;;;;;;7.88;2.90;;;;;;;;;;4890275;29;20192;-79
2024/02/16 06:59:38;;;;;;;7.05;3.15;;;;;;;;;;4878834;29;20037;-77
2024/02/16 07:02:24;;;;;;;9.30;3.97;;;;;;;;;;4897396;29;20567;-79
2024/02/16 07:05:09;;;;;;;6.13;3.25;;;;;;;;;;4899892;29;20513;-79
2024/02/16 07:07:54;;;;;;;6.00;2.90;;;;;;;;;;4896802;29;20460;-79
2024/02/16 07:10:42;;;;;;;7.18;3.33;;;;;;;;;;4895579;29;20079;-78
2024/02/16 07:13:27;;;;;;;6.78;3.30;;;;;;;;;;4896463;29;20127;-79
2024/02/16 07:16:12;;;;;;;7.60;3.15;;;;;;;;;;4893196;29;20034;-81
2024/02/16 07:18:57;;;;;;;9.95;4.55;;;;;;;;;;4895759;29;20141;-80
2024/02/16 07:21:44;;;;;;;9.30;4.15;;;;;;;;;;4892862;29;20066;-80
2024/02/16 07:24:29;;;;;;;8.45;4.07;;;;;;;;;;4894621;29;20028;-79
2024/02/16 07:27:14;;;;;;;13.23;4.30;;;;;;;;;;4897049;29;20140;-79
2024/02/16 07:30:00;;;;;;;8.57;3.53;;;;;;;;;;4896754;29;20036;-80
2024/02/16 07:32:52;;;;;;;5.05;3.47;;;;;;;;;;4895709;29;20036;-80
2024/02/16 07:35:38;;;;;;;6.75;3.55;;;;;;;;;;4899123;29;20380;-79
2024/02/16 07:38:23;;;;;;;11.02;4.70;;;;;;;;;;4904099;29;20031;-79
2024/02/16 07:41:09;;;;;;;6.60;3.17;;;;;;;;;;4895609;29;20119;-79
2024/02/16 07:43:54;;;;;;;10.23;3.55;;;;;;;;;;4902168;29;20452;-80
2024/02/16 07:46:40;;;;;;;11.55;3.90;;;;;;;;;;4894878;29;20043;-79
2024/02/16 07:49:25;;;;;;;8.63;3.38;;;;;;;;;;4908903;29;20036;-79
2024/02/16 07:52:11;;;;;;;11.50;3.70;;;;;;;;;;4894798;29;20079;-79
2024/02/16 07:54:56;;;;;;;6.47;3.05;;;;;;;;;;4895011;29;20103;-79
2024/02/16 07:57:41;;;;;;;5.95;3.05;;;;;;;;;;4894591;29;20135;-79
2024/02/16 08:00:28;;;;;;;6.00;3.28;;;;;;;;;;4894103;29;20020;-78
2024/02/16 08:03:14;;;;;;;8.70;3.45;;;;;;;;;;4894947;29;20040;-77
2024/02/16 08:05:59;;;;;;;9.82;3.90;;;;;;;;;;4896472;29;20032;-78
2024/02/16 08:08:44;;;;;;;9.43;4.00;;;;;;;;;;4895143;29;20054;-78
2024/02/16 08:11:29;;;;;;;6.85;2.85;;;;;;;;;;4894743;29;20720;-77
2024/02/16 08:14:15;;;;;;;5.50;2.83;;;;;;;;;;4895622;29;20044;-80
2024/02/16 08:17:00;;;;;;;8.45;3.10;;;;;;;;;;4895596;29;20131;-79
2024/02/16 08:19:50;;;;;;;12.73;4.00;;;;;;;;;;4887080;29;20040;-80
2024/02/16 08:22:36;;;;;;;6.93;3.45;;;;;;;;;;4892199;29;20399;-80
2024/02/16 08:25:22;;;;;;;9.50;3.47;;;;;;;;;;4894976;29;20095;-80
2024/02/16 08:28:07;;;;;;;8.68;3.63;;;;;;;;;;4895625;29;20028;-79
2024/02/16 08:30:53;;;;;;;7.75;3.58;;;;;;;;;;4894368;29;20036;-79
2024/02/16 08:33:38;;;;;;;7.90;3.42;;;;;;;;;;4895978;29;20039;-80
2024/02/16 08:36:29;;;;;;;9.20;3.72;;;;;;;;;;4895729;29;20032;-79
2024/02/16 08:39:14;;;;;;;6.57;3.35;;;;;;;;;;4899316;29;20043;-79
2024/02/16 08:42:00;;;;;;;8.82;3.50;;;;;;;;;;4897537;29;20032;-80
2024/02/16 08:44:46;;;;;;;8.05;3.38;;;;;;;;;;4904397;29;20103;-79
2024/02/16 08:47:31;;;;;;;6.80;3.50;;;;;;;;;;4899624;29;20075;-79
2024/02/16 08:50:17;;;;;;;7.03;2.85;;;;;;;;;;4895990;29;20032;-79
2024/02/16 08:53:02;;;;;;;8.50;3.70;;;;;;;;;;4893752;29;20100;-77
2024/02/16 08:55:47;;;;;;;8.90;3.45;;;;;;;;;;4904877;29;20470;-78
2024/02/16 08:58:32;;;;;;;9.20;4.38;;;;;;;;;;4902086;29;20036;-78
2024/02/16 09:01:18;;;;;;;6.55;2.92;;;;;;;;;;4897046;29;20020;-78
2024/02/16 09:04:04;;;;;;;7.22;3.75;;;;;;;;;;4896648;29;20020;-79
2024/02/16 09:06:50;;;;;;;8.80;4.18;;;;;;;;;;4898340;29;20031;-77
2024/02/16 09:09:36;;;;;;;9.32;4.18;;;;;;;;;;4898184;29;20039;-78
2024/02/16 09:12:24;;;;;;;9.00;3.83;;;;;;;;;;4897709;29;20286;-78
2024/02/16 09:15:09;;;;;;;6.93;3.28;;;;;;;;;;4911261;29;20606;-79
2024/02/16 09:17:54;;;;;;;8.40;3.83;;;;;;;;;;4898841;29;20040;-79
2024/02/16 09:20:40;;;;;;;8.65;3.97;;;;;;;;;;4886105;29;20031;-84
2024/02/16 09:23:26;;;;;;;8.07;3.38;;;;;;;;;;4899431;29;20087;-84
2024/02/16 09:26:11;;;;;;;6.85;3.08;;;;;;;;;;4901741;29;20083;-84
2024/02/16 09:28:57;;;;;;;10.23;4.28;;;;;;;;;;4905244;29;20141;-84
2024/02/16 09:31:42;;;;;;;11.13;4.75;;;;;;;;;;4921720;29;20043;-83
2024/02/16 09:34:28;;;;;;;11.85;5.20;;;;;;;;;;4911222;29;20027;-87
2024/02/16 09:37:13;;;;;;;8.95;4.03;;;;;;;;;;4906566;29;20395;-83
2024/02/16 09:39:58;;;;;;;11.55;3.38;;;;;;;;;;4917261;29;20023;-86
2024/02/16 09:42:47;;;;;;;8.75;3.72;;;;;;;;;;4903277;29;20064;-83
2024/02/16 09:45:33;;;;;;;8.15;3.42;;;;;;;;;;4909955;29;20040;-85
2024/02/16 09:48:18;;;;;;;6.50;3.00;;;;;;;;;;4908702;29;20036;-86
2024/02/16 09:51:04;;;;;;;10.20;4.07;;;;;;;;;;4908937;29;20075;-84
2024/02/16 09:53:54;;;;;;;6.18;3.00;;;;;;;;;;4897635;29;20028;-79
2024/02/16 09:56:40;;;;;;;6.22;2.58;;;;;;;;;;4905183;29;20110;-78
2024/02/16 09:59:25;;;;;;;9.13;3.03;;;;;;;;;;4910278;29;20051;-78
2024/02/16 10:02:10;;;;;;;3.88;2.05;;;;;;;;;;4907261;29;20092;-78
2024/02/16 10:04:56;;;;;;;3.17;1.42;;;;;;;;;;4908801;29;20431;-80
2024/02/16 10:07:43;;;;;;;4.53;1.77;;;;;;;;;;4909065;29;20128;-78
2024/02/16 10:10:31;;;;;;;3.08;1.67;;;;;;;;;;4917755;29;20024;-76
2024/02/16 10:13:16;;;;;;;4.35;1.92;;;;;;;;;;4908984;29;20147;-76
2024/02/16 10:16:08;;;;;;;5.00;1.83;;;;;;;;;;4900765;29;20028;-78
2024/02/16 10:18:55;;;;;;;6.75;1.88;;;;;;;;;;4899954;29;20141;-77
2024/02/16 10:21:41;;;;;;;4.68;2.05;;;;;;;;;;4914630;29;20064;-77
2024/02/16 10:24:26;;;;;;;3.17;1.73;;;;;;;;;;4901743;29;20027;-77
2024/02/16 10:27:15;;;;;;;3.58;1.85;;;;;;;;;;4902610;29;20111;-76
2024/02/16 10:30:02;;;;;;;4.35;2.25;;;;;;;;;;4899256;29;20031;-77
2024/02/16 10:32:47;;;;;;;5.57;1.65;;;;;;;;;;4909853;29;20032;-77
2024/02/16 10:35:34;;;;;;;4.38;1.98;;;;;;;;;;4900572;29;20076;-79
2024/02/16 10:38:19;;;;;;;5.45;1.90;;;;;;;;;;4912189;29;20456;-80
2024/02/16 10:41:06;;;;;;;3.28;1.67;;;;;;;;;;4896309;29;20103;-78
2024/02/16 10:43:52;;;;;;;4.32;1.77;;;;;;;;;;4895377;29;20643;-78
2024/02/16 10:46:49;;;;;;;3.45;1.83;;;;;;;;;;4896290;29;20056;-80
2024/02/16 10:49:35;;;;;;;3.55;1.70;;;;;;;;;;4893955;29;20140;-80
2024/02/16 10:52:21;;;;;;;4.22;1.58;;;;;;;;;;4909002;29;20027;-81
2024/02/16 10:55:07;;;;;;;3.22;1.58;;;;;;;;;;4896487;29;20028;-82
2024/02/16 10:57:55;;;;;;;3.70;2.00;;;;;;;;;;4885494;29;20254;-84
2024/02/16 11:00:50;;;;;;;10.80;2.07;;;;;;;;;;4896453;29;20083;-80
2024/02/16 11:03:37;;;;;;;5.72;2.80;;;;;;;;;;4896270;29;20269;-82
2024/02/16 11:06:22;;;;;;;2.97;1.83;;;;;;;;;;4893081;29;20028;-81
2024/02/16 11:09:10;;;;;;;6.60;2.60;;;;;;;;;;4910345;29;20539;-81
2024/02/16 11:11:58;;;;;;;4.93;1.93;;;;;;;;;;4889294;29;20483;-80
2024/02/16 11:14:54;;;;;;;7.00;2.28;;;;;;;;;;4885531;29;20047;-79
2024/02/16 11:17:42;;;;;;;3.38;1.73;;;;;;;;;;4908025;29;20032;-80
2024/02/16 11:20:27;;;;;;;3.97;1.75;;;;;;;;;;4897360;29;20097;-80
2024/02/16 11:23:14;;;;;;;8.57;2.50;;;;;;;;;;4894630;29;20037;-81
2024/02/16 11:26:03;;;;;;;5.15;1.92;;;;;;;;;;4895854;29;20114;-80
2024/02/16 11:28:50;;;;;;;3.97;1.85;;;;;;;;;;4895804;29;20023;-80
2024/02/16 11:31:35;;;;;;;5.93;1.92;;;;;;;;;;4889211;29;20063;-79
2024/02/16 11:34:25;;;;;;;4.30;1.95;;;;;;;;;;4896290;29;20035;-80
2024/02/16 11:37:12;;;;;;;5.25;1.85;;;;;;;;;;4890158;29;20033;-81
2024/02/16 11:39:57;;;;;;;4.32;2.13;;;;;;;;;;4908973;29;20031;-82
2024/02/16 11:42:46;;;;;;;7.57;2.17;;;;;;;;;;4895551;29;20039;-81
2024/02/16 11:45:33;;;;;;;4.83;1.90;;;;;;;;;;4895860;29;20502;-79
2024/02/16 11:48:19;;;;;;;4.97;2.05;;;;;;;;;;4896344;29;20098;-81
2024/02/16 11:51:05;;;;;;;2.40;1.85;;;;;;;;;;4896561;29;20024;-80
2024/02/16 11:53:57;;;;;;;3.58;1.80;;;;;;;;;;4895108;29;20024;-81
2024/02/16 11:56:45;;;;;;;8.45;2.22;;;;;;;;;;4894643;29;20032;-81
2024/02/16 11:59:31;;;;;;;4.18;1.85;;;;;;;;;;4896876;29;20084;-81
2024/02/16 12:02:18;;;;;;;3.78;1.88;;;;;;;;;;4894620;29;20027;-80
2024/02/16 12:05:04;;;;;;;5.70;1.95;;;;;;;;;;4895245;29;20422;-79
2024/02/16 12:07:49;;;;;;;3.70;2.05;;;;;;;;;;4894072;29;20074;-80
2024/02/16 12:10:36;;;;;;;7.90;2.42;;;;;;;;;;4892759;29;20032;-81
2024/02/16 12:13:21;;;;;;;5.20;3.08;;;;;;;;;;4906796;29;20048;-80
2024/02/16 12:16:07;;;;;;;6.80;2.75;;;;;;;;;;4890533;29;20055;-80
2024/02/16 12:19:02;;;;;;;5.05;2.42;;;;;;;;;;4894863;29;20551;-81
2024/02/16 12:21:51;;;;;;;4.28;2.13;;;;;;;;;;4885288;29;20024;-81
2024/02/16 12:24:37;;;;;;;5.63;2.15;;;;;;;;;;4894917;29;20040;-78
2024/02/16 12:27:22;;;;;;;5.15;1.90;;;;;;;;;;4895747;29;20091;-79
2024/02/16 12:30:07;;;;;;;5.80;2.00;;;;;;;;;;4891170;29;20143;-78
2024/02/16 12:32:53;;;;;;;7.80;2.70;;;;;;;;;;4903217;29;20484;-78
2024/02/16 12:35:39;;;;;;;5.35;2.00;;;;;;;;;;4893337;29;20032;-78
2024/02/16 12:38:24;;;;;;;3.75;2.03;;;;;;;;;;4895852;29;20035;-77
2024/02/16 12:41:09;;;;;;;3.78;2.03;;;;;;;;;;4895318;29;20632;-77
2024/02/16 12:43:55;;;;;;;5.53;2.33;;;;;;;;;;4894745;29;20103;-78
2024/02/16 12:46:41;;;;;;;4.65;2.17;;;;;;;;;;4903046;29;20028;-78
2024/02/16 12:49:27;;;;;;;3.05;1.50;;;;;;;;;;4894435;29;20032;-79
2024/02/16 12:52:19;;;;;;;8.23;2.33;;;;;;;;;;4896264;29;20081;-80
2024/02/16 12:55:10;;;;;;;3.88;1.77;;;;;;;;;;4895830;29;20060;-79
2024/02/16 12:57:56;;;;;;;4.07;2.45;;;;;;;;;;4906020;29;20028;-79
2024/02/16 13:00:41;;;;;;;8.80;3.00;;;;;;;;;;4896115;29;20016;-80
2024/02/16 13:03:27;;;;;;;6.07;2.30;;;;;;;;;;4889052;29;20050;-79
2024/02/16 13:06:13;;;;;;;5.03;1.88;;;;;;;;;;4890654;29;20079;-88
2024/02/16 13:08:59;;;;;;;3.25;1.70;;;;;;;;;;4903184;29;20024;-81
2024/02/16 13:11:44;;;;;;;7.38;2.25;;;;;;;;;;4896585;29;20043;-84
2024/02/16 13:14:29;;;;;;;7.07;2.70;;;;;;;;;;4889872;29;20048;-82
2024/02/16 13:17:15;;;;;;;5.82;2.15;;;;;;;;;;4880299;29;20468;-83
2024/02/16 13:20:06;;;;;;;7.22;2.33;;;;;;;;;;4874134;29;20036;-83
2024/02/16 13:22:52;;;;;;;5.63;2.53;;;;;;;;;;4881033;29;20145;-79
2024/02/16 13:25:37;;;;;;;6.13;2.38;;;;;;;;;;4879605;29;20815;-83
2024/02/16 13:28:22;;;;;;;6.75;2.88;;;;;;;;;;4882178;29;20047;-83
2024/02/16 13:31:09;;;;;;;7.65;3.28;;;;;;;;;;4880429;29;20091;-82
2024/02/16 13:33:55;;;;;;;8.52;2.75;;;;;;;;;;4884926;29;20035;-80
2024/02/16 13:36:41;;;;;;;5.32;2.70;;;;;;;;;;4879918;29;20028;-79
2024/02/16 13:39:27;;;;;;;6.80;2.67;;;;;;;;;;4881990;29;20035;-81
2024/02/16 13:42:12;;;;;;;5.53;3.25;;;;;;;;;;4880814;29;20052;-78
2024/02/16 13:45:04;;;;;;;6.28;2.75;;;;;;;;;;4876368;29;20042;-81
2024/02/16 13:47:50;;;;;;;6.88;2.83;;;;;;;;;;4880563;29;20490;-82
2024/02/16 13:50:35;;;;;;;6.53;3.42;;;;;;;;;;4880252;29;20036;-81
2024/02/16 13:53:23;;;;;;;10.57;2.72;;;;;;;;;;4880241;29;20028;-80
2024/02/16 13:56:09;;;;;;;6.30;3.00;;;;;;;;;;4890376;29;20043;-80
2024/02/16 13:58:55;;;;;;;6.18;2.47;;;;;;;;;;4883128;29;20043;-81
2024/02/16 14:01:40;;;;;;;9.07;3.05;;;;;;;;;;4886945;29;20035;-82
2024/02/16 14:04:26;;;;;;;8.18;2.42;;;;;;;;;;4885698;29;20096;-81
2024/02/16 14:07:11;;;;;;;5.15;2.75;;;;;;;;;;4886931;29;20028;-79
2024/02/16 14:09:57;;;;;;;4.82;2.35;;;;;;;;;;4895759;29;20039;-80
2024/02/16 14:12:44;;;;;;;5.95;3.17;;;;;;;;;;4899220;29;20084;-82
2024/02/16 14:15:29;;;;;;;7.15;2.53;;;;;;;;;;4900936;29;20032;-79
2024/02/16 14:18:15;;;;;;;7.78;2.80;;;;;;;;;;4900489;29;20028;-80
2024/02/16 14:21:01;;;;;;;4.10;2.22;;;;;;;;;;4905943;29;20036;-80
2024/02/16 14:23:46;;;;;;;8.07;2.83;;;;;;;;;;4898536;29;20035;-79
2024/02/16 14:26:31;;;;;;;7.80;2.20;;;;;;;;;;4894538;29;20031;-80
2024/02/16 14:29:17;;;;;;;6.28;2.28;;;;;;;;;;4895350;29;20030;-79
2024/02/16 14:32:02;;;;;;;12.88;5.13;;;;;;;;;;4898265;29;20044;-79
2024/02/16 14:34:48;;;;;;;9.73;4.70;;;;;;;;;;4899507;29;20039;-78
2024/02/16 14:37:34;;;;;;;11.05;4.72;;;;;;;;;;4899030;29;20040;-81
2024/02/16 14:40:19;;;;;;;11.13;3.90;;;;;;;;;;4896269;29;20154;-82
2024/02/16 14:43:05;;;;;;;11.85;4.03;;;;;;;;;;4896898;29;20032;-79
2024/02/16 14:45:50;;;;;;;4.95;2.30;;;;;;;;;;4897129;29;20024;-79
2024/02/16 14:48:36;;;;;;;6.03;2.33;;;;;;;;;;4899972;29;20035;-80
2024/02/16 14:51:21;;;;;;;7.25;2.60;;;;;;;;;;4896151;29;20280;-79
2024/02/16 14:54:08;;;;;;;8.63;2.30;;;;;;;;;;4897275;29;20034;-80
2024/02/16 14:56:53;;;;;;;8.23;2.03;;;;;;;;;;4905963;29;20047;-80
2024/02/16 14:59:39;;;;;;;6.65;2.45;;;;;;;;;;4898713;29;20024;-80
2024/02/16 15:02:24;;;;;;;8.45;2.47;;;;;;;;;;4898560;29;20047;-81
2024/02/16 15:05:09;;;;;;;7.82;2.22;;;;;;;;;;4891797;29;20024;-80
2024/02/16 15:07:54;;;;;;;8.95;2.10;;;;;;;;;;4894371;29;20067;-80
2024/02/16 15:10:40;;;;;;;11.07;2.20;;;;;;;;;;4895178;29;20031;-79
2024/02/16 15:13:27;;;;;;;10.10;2.38;;;;;;;;;;4897224;29;20128;-80
2024/02/16 15:16:12;;;;;;;4.88;2.20;;;;;;;;;;4911247;29;20510;-80
2024/02/16 15:18:58;;;;;;;9.52;2.17;;;;;;;;;;4894680;29;20095;-79
2024/02/16 15:21:43;;;;;;;8.18;2.05;;;;;;;;;;4896689;29;20084;-79
2024/02/16 15:24:28;;;;;;;8.13;2.17;;;;;;;;;;4894511;29;20079;-81
2024/02/16 15:27:14;;;;;;;5.95;2.20;;;;;;;;;;4896489;29;20062;-80
2024/02/16 15:29:59;;;;;;;8.25;2.38;;;;;;;;;;4899748;29;20040;-81
2024/02/16 15:32:44;;;;;;;7.80;2.10;;;;;;;;;;4891253;29;20031;-80
2024/02/16 15:35:29;;;;;;;7.30;2.20;;;;;;;;;;4891458;29;20031;-78
2024/02/16 15:38:15;;;;;;;8.40;2.10;;;;;;;;;;4909227;29;20020;-78
2024/02/16 15:41:01;;;;;;;5.70;2.13;;;;;;;;;;4895159;29;20035;-79
2024/02/16 15:43:46;;;;;;;5.40;2.05;;;;;;;;;;4905834;29;20028;-81
2024/02/16 15:46:31;;;;;;;6.32;2.53;;;;;;;;;;4906032;29;20095;-81
2024/02/16 15:49:17;;;;;;;6.68;2.20;;;;;;;;;;4892629;29;20033;-81
2024/02/16 15:52:03;;;;;;;5.85;2.17;;;;;;;;;;4909088;29;20091;-81
2024/02/16 15:54:49;;;;;;;10.70;3.42;;;;;;;;;;4894698;29;20391;-79
2024/02/16 15:57:34;;;;;;;5.07;1.80;;;;;;;;;;4894517;29;20039;-80
2024/02/16 16:00:19;;;;;;;6.97;2.20;;;;;;;;;;4892560;29;20024;-80
2024/02/16 16:03:05;;;;;;;6.35;2.00;;;;;;;;;;4895623;29;20103;-80
2024/02/16 16:05:50;;;;;;;6.15;2.13;;;;;;;;;;4906984;29;20079;-80
2024/02/16 16:08:35;;;;;;;6.18;2.42;;;;;;;;;;4900954;29;20649;-79
2024/02/16 16:11:21;;;;;;;6.30;1.75;;;;;;;;;;4895407;29;20024;-80
2024/02/16 16:14:07;;;;;;;7.32;2.22;;;;;;;;;;4891163;29;20063;-80
2024/02/16 16:16:53;;;;;;;5.20;1.90;;;;;;;;;;4901945;29;20028;-79
2024/02/16 16:19:38;;;;;;;5.57;1.80;;;;;;;;;;4894233;29;20060;-81
2024/02/16 16:22:24;;;;;;;5.15;2.22;;;;;;;;;;4895656;29;20028;-81
2024/02/16 16:25:09;;;;;;;7.32;2.03;;;;;;;;;;4895535;29;20025;-81
2024/02/16 16:27:54;;;;;;;9.88;3.38;;;;;;;;;;4894485;29;20028;-81
2024/02/16 16:30:40;;;;;;;8.85;3.20;;;;;;;;;;4893225;29;20042;-82
2024/02/16 16:33:25;;;;;;;7.55;3.35;;;;;;;;;;4895199;29;20020;-81
2024/02/16 16:36:13;;;;;;;6.00;3.05;;;;;;;;;;4895208;29;20082;-81